• Join FlightAware (Why Join?)
  • Login
  • US Flag 
12:18AM EDT


 

Airport Tracker/Info


-or-


 

Live Flight TrackerFlight Track Log ✈ AWE3202 ✈ 20-Jun-2013 ✈ KDCA - KMHT

Flight Track Log - Related Links

Times and Time Zones

All times are in EDT time to prevent confusion due to time zone crossing. See the AWE3202 flight status page for this flight to view local times or setup timezone preferences in your user account.

Time Position Orientation Groundspeed Altitude Reporting Facility
EDT Latitude Longitude Course Direction KTS MPH feet Rate Location/Type
10:09PM 38.7650 -77.0347 83° East 185 213 3,500  Level Washington Center
10:10PM 38.7306 -76.9647 122° Southeast 203 234 6,400 2,820 Climbing Washington Center
10:11PM 39.0225 -76.5493 67° East  Level FlightAware Approximate
10:11PM 38.7917 -76.9047 37° Northeast 143 165 9,200  Level Washington Center
10:12PM 39.0694 -76.4270 61° Northeast  Level FlightAware Approximate
10:12PM 38.8650 -76.8500 30° Northeast 217 250 11,000  Level Washington Center
10:13PM 39.1167 -76.3062 90° East  Level FlightAware Approximate
10:13PM 38.9244 -76.7656 48° Northeast 261 300 11,400  Level Washington Center
10:14PM 39.1530 -76.1867 83° East  Level FlightAware Approximate
10:14PM 38.9608 -76.6489 68° East 297 342 14,700  Level Washington Center
10:15PM 39.1665 -76.0512 83° East  Level FlightAware Approximate
10:15PM 39.0075 -76.5372 62° Northeast 329 379 17,100  Level Washington Center
10:16PM 39.0439 -76.4067 70° East 356 410 18,400 1,620 Climbing Washington Center
10:17PM 39.0822 -76.2708 70° East 385 443 20,300 1,740 Climbing Washington Center
10:18PM 39.1269 -76.1267 68° East 410 472 22,000 1,380 Climbing Washington Center
10:19PM 39.1669 -75.9797 71° East 427 491 23,200 1,320 Climbing Washington Center
10:20PM 39.2236 -75.8381 63° Northeast 427 491 24,700 1,500 Climbing Washington Center
10:21PM 39.3114 -75.7258 45° Northeast 432 497 26,200 1,380 Climbing Washington Center
10:22PM 39.4011 -75.6131 44° Northeast 437 503 27,500 1,260 Climbing Washington Center
10:23PM 39.4928 -75.4919 46° Northeast 448 516 28,800 960 Climbing Washington Center
10:24PM 39.5864 -75.3708 45° Northeast 458 527 29,500 780 Climbing Washington Center
10:26PM 39.7489 -75.1475 47° Northeast 471 542 31,000 480 Climbing New York Center
10:27PM 39.8456 -75.0131 47° Northeast 465 535 31,000  Level New York Center
10:28PM 39.9247 -74.8961 49° Northeast 465 535 31,000  Level New York Center
10:29PM 40.0169 -74.7606 48° Northeast 465 535 31,000  Level New York Center
10:30PM 40.0997 -74.6539 45° Northeast 460 529 31,000  Level New York Center
10:31PM 40.2308 -74.5933 19° North 446 513 31,000  Level New York Center
10:32PM 40.3406 -74.5558 15° North 454 522 31,000  Level New York Center
10:33PM 40.4647 -74.5192 13° North 449 517 31,000  Level New York Center
10:34PM 40.5886 -74.4822 13° North 444 511 31,000  Level New York Center
10:35PM 40.7128 -74.4450 13° North 450 518 31,000  Level New York Center
10:36PM 40.8347 -74.4078 13° North 450 518 31,000  Level New York Center
10:37PM 40.9569 -74.3678 14° North 450 518 31,000  Level New York Center
10:39PM 41.2161 -74.2917 12° North 459 528 31,000  Level Boston Center
10:40PM 41.3481 -74.2458 15° North 447 514 31,000  Level Boston Center
10:41PM 41.4694 -74.2103 12° North 447 514 31,000  Level Boston Center
10:42PM 41.5847 -74.1775 12° North 456 525 31,000  Level Boston Center
10:43PM 41.7019 -74.1417 13° North 449 517 31,000  Level Boston Center
10:44PM 41.8108 -74.1058 14° North 425 489 31,000  Level Boston Center
10:45PM 41.9258 -74.0725 12° North 413 475 31,000  Level Boston Center
10:46PM 42.0453 -74.0336 14° North 413 475 31,000 -720 Level Boston Center
10:47PM 42.1583 -73.9972 13° North 413 475 29,600 -1,860 Descending Boston Center
10:48PM 42.2694 -73.9608 14° North 413 475 27,300 -2,640 Descending Boston Center
10:49PM 42.3622 -73.8675 37° Northeast 397 457 24,400 -1,740 Descending Boston Center
10:50PM 42.4222 -73.7367 58° Northeast 384 442 23,900 -960 Descending Boston Center
10:51PM 42.4592 -73.5911 71° East 389 448 22,500 -960 Descending Boston Center
10:52PM 42.4981 -73.4483 70° East 389 448 22,000 -300 Descending Boston Center
10:53PM 42.5369 -73.2883 72° East 417 480 22,000  Level Boston Center
10:54PM 42.5753 -73.1422 70° East 423 487 22,000 -780 Level Boston Center
10:55PM 42.6136 -73.0100 68° East 401 461 20,500 -1,500 Descending Boston Center
10:56PM 42.6475 -72.8692 72° East 395 455 19,000 -900 Descending Boston Center
10:57PM 42.6878 -72.7169 70° East 383 441 18,800 -1,020 Descending Boston Center
10:58PM 42.7233 -72.5786 71° East 383 441 17,000 -1,740 Descending Boston Center
10:59PM 42.7547 -72.4486 72° East 378 435 15,400 -1,620 Descending Boston Center
11:00PM 42.7881 -72.3214 70° East 365 420 13,800 -1,560 Descending Boston Center
11:01PM 42.8003 -72.2053 82° East 351 404 12,300 -1,560 Descending Boston Center
11:02PM 42.8103 -72.0694 84° East 337 388 10,700 -1,620 Descending Boston Center
11:03PM 42.8017 -71.9647 96° East 315 362 9,100 -1,740 Descending Boston Center
11:04PM 42.7906 -71.8403 97° East 310 357 7,300 -1,740 Descending Boston Center
11:05PM 42.7839 -71.7414 95° East 297 342 5,700 -1,500 Descending Boston Center
11:06PM 42.7767 -71.6256 95° East 283 326 4,300 -1,260 Descending Boston Center
11:07PM 42.7742 -71.5378 92° East 266 306 3,200 -1,200 Descending Boston Center
11:08PM 42.7942 -71.4414 74° East 243 280 2,000 -1,200 Descending Boston Center